Nearby METAR Reports

 

K27K - Georgetown, Kentucky, USA
Distance from station: NE 1mi, 3km
Updated: Mon, 19-Aug-2019 1:15am EDT
Clear
Clear
 Wind from calm
Wind: Calm
Temperature: 72°F , 22°C
Dew Point: 66°F , 19°C
Humidity: 83%
Barometer: 30.02 inHg , 1016.6 hPa
Clouds: Clear
Visibility: 10 miles , 16 km
2019/08/19 05:15 K27K 190515Z AUTO 00000KT 10SM CLR 22/19 A3002 RMK AO1
KLEX - Lexington, Kentucky, USA
Distance from station: SE 25mi, 38km
Updated: Mon, 19-Aug-2019 12:54am EDT
Clear
Clear
 Wind from SSW
Wind: SSW 3 mph , 6 km/h
Temperature: 81°F , 27°C
Heat Index: 83°F , 28°C
Dew Point: 64°F , 18°C
Humidity: 58%
Barometer: 30.02 inHg , 1016.6 hPa
Clouds: Clear
Visibility: 10 miles , 16 km
2019/08/19 04:54 KLEX 190454Z 20003KT 10SM CLR 27/18 A3002 RMK AO2 SLP151 T02670183 403610211
 
KFFT - Frankfort, Kentucky, USA
Distance from station: WNW 24mi, 38km
Updated: Mon, 19-Aug-2019 12:53am EDT
Partly cloudy
Partly cloudy
 Wind from calm
Wind: Calm
Temperature: 79°F , 26°C
Dew Point: 70°F , 21°C
Humidity: 74%
Barometer: 30.00 inHg , 1015.9 hPa
Clouds: Partly cloudy
Visibility: 10 miles , 16 km
Cloud details: Few Clouds 9500 ft
Partly cloudy 12000 ft
2019/08/19 04:53 KFFT 190453Z AUTO 00000KT 10SM FEW095 SCT120 26/21 A3000 RMK AO2 SLP149 T02560206 403500211
KIOB - Mount Sterling, Kentucky, USA
Distance from station: E 28mi, 46km
Updated: Mon, 19-Aug-2019 1:15am EDT
Clear
Clear
 Wind from calm
Wind: Calm
Temperature: 73°F , 23°C
Dew Point: 68°F , 20°C
Humidity: 83%
Barometer: 30.03 inHg , 1016.9 hPa
Clouds: Clear
Visibility: 10 miles , 16 km
2019/08/19 05:15 KIOB 190515Z AUTO 00000KT 10SM CLR 23/20 A3003 RMK AO2 PWINO
 
KDVK - Danville, Kentucky, USA
Distance from station: SSW 35mi, 56km
Updated: Mon, 19-Aug-2019 1:15am EDT
Clear
Clear
 Wind from calm
Wind: Calm
Temperature: 73°F , 23°C
Dew Point: 68°F , 20°C
Humidity: 83%
Barometer: 30.03 inHg , 1016.9 hPa
Clouds: Clear
Visibility: 10 miles , 16 km
2019/08/19 05:15 KDVK 190515Z AUTO 00000KT 10SM CLR 23/20 A3003 RMK AO2
K6I2 - Springfield, Kentucky, USA
Distance from station: SW 49mi, 80km
Updated: Mon, 19-Aug-2019 1:05am EDT
Clear
Clear
 Wind from calm
Wind: Calm
Temperature: 79°F , 26°C
Dew Point: 70°F , 21°C
Humidity: 74%
Barometer: 30.01 inHg , 1016.3 hPa
Clouds: Clear
Visibility: 10 miles , 16 km
2019/08/19 05:05 K6I2 190505Z AUTO 00000KT 10SM CLR 26/21 A3001 RMK AO2
 
KSYM - Morehead, Kentucky, USA
Distance from station: ENE 51mi, 83km
Updated: Mon, 19-Aug-2019 1:15am EDT
Clear
Clear
 Wind from SW
Wind: SW 6 mph , 9 km/h
Temperature: 81°F , 27°C
Heat Index: 83°F , 28°C
Dew Point: 66°F , 19°C
Humidity: 62%
Barometer: 30.03 inHg , 1016.9 hPa
Clouds: Clear
Visibility: 10 miles , 16 km
2019/08/19 05:15 KSYM 190515Z AUTO 22005KT 10SM CLR 27/19 A3003 RMK AO2
KFGX - Flemingsburg, Kentucky, USA
Distance from station: NE 54mi, 87km
Updated: Mon, 19-Aug-2019 1:15am EDT
Clear
Clear
 Wind from NW
Wind: NW 7 mph , 11 km/h
Temperature: 77°F , 25°C
Dew Point: 68°F , 20°C
Humidity: 74%
Barometer: 30.03 inHg , 1016.9 hPa
Clouds: Clear
Visibility: 10 miles , 16 km
2019/08/19 05:15 KFGX 190515Z AUTO 31006KT 10SM CLR 25/20 A3003 RMK AO2 T02500195
 
KLOU - Louisville/Bowmn, Kentucky, USA
Distance from station: W 64mi, 104km
Updated: Mon, 19-Aug-2019 12:53am EDT
Clear
Clear
 Wind from N
Wind: N 5 mph , 7 km/h
Temperature: 81°F , 27°C
Heat Index: 83°F , 28°C
Dew Point: 66°F , 19°C
Humidity: 62%
Barometer: 29.99 inHg , 1015.6 hPa
Clouds: Clear
Visibility: 10 miles , 16 km
2019/08/19 04:53 KLOU 190453Z 36004KT 10SM CLR 27/19 A2999 RMK AO2 SLP148 T02720189 403500222
KSDF - Louisville, Kentucky, USA
Distance from station: W 68mi, 109km
Updated: Mon, 19-Aug-2019 12:56am EDT
Overcast
Overcast
 Wind from N
Wind: N 9 mph , 15 km/h
Temperature: 82°F , 28°C
Heat Index: 84°F , 29°C
Dew Point: 64°F , 18°C
Humidity: 55%
Barometer: 29.98 inHg , 1015.2 hPa
Clouds: Overcast
Visibility: 10 miles , 16 km
Cloud details: Partly cloudy 15000 ft
Mostly cloudy 18000 ft
Overcast 25000 ft
2019/08/19 04:56 KSDF 190456Z 01008KT 10SM SCT150 BKN180 OVC250 28/18 A2998 RMK AO2 SLP146 T02780183 403560244
 
KSME - Somerset, Kentucky, USA
Distance from station: S 69mi, 111km
Updated: Mon, 19-Aug-2019 1:15am EDT
Clear
Clear
 Wind from calm
Wind: Calm
Temperature: 72°F , 22°C
Dew Point: 70°F , 21°C
Humidity: 94%
Barometer: 30.03 inHg , 1016.9 hPa
Clouds: Clear
Visibility: 10 miles , 16 km
2019/08/19 05:15 KSME 190515Z AUTO 00000KT 10SM CLR 22/21 A3003 RMK AO2 LTG DSNT N
KCVG - Covington, Kentucky, USA
Distance from station: N 70mi, 113km
Updated: Mon, 19-Aug-2019 12:52am EDT
Light rain, Overcast
Light rain, Overcast
 Wind from varies
Wind: varies 3 mph , 6 km/h
Temperature: 75°F , 24°C
Dew Point: 64°F , 18°C
Humidity: 69%
Barometer: 30.01 inHg , 1016.3 hPa
Summary: Light rain
Clouds: Overcast
Visibility: 10 miles , 16 km
Cloud details: Few Clouds 7000 ft
Partly cloudy 10000 ft
Overcast 13000 ft
2019/08/19 04:52 KCVG 190452Z VRB03KT 10SM -RA FEW070 SCT100 OVC130 24/18 A3001 RMK AO2 RAB39 SLP151 P0000 T02390178 403390217
 
KLOZ - London, Kentucky, USA
Distance from station: SSE 70mi, 113km
Updated: Mon, 19-Aug-2019 12:53am EDT
Clear
Clear
 Wind from calm
Wind: Calm
Temperature: 73°F , 23°C
Dew Point: 70°F , 21°C
Humidity: 89%
Barometer: 30.03 inHg , 1016.9 hPa
Clouds: Clear
Visibility: 10 miles , 16 km
2019/08/19 04:53 KLOZ 190453Z AUTO 00000KT 10SM CLR 23/21 A3003 RMK AO2 SLP154 T02280206 403440189
KJKL - Noctor/Jackson, Kentucky, USA
Distance from station: ESE 72mi, 115km
Updated: Mon, 19-Aug-2019 12:53am EDT
Clear
Clear
 Wind from calm
Wind: Calm
Temperature: 79°F , 26°C
Dew Point: 66°F , 19°C
Humidity: 65%
Barometer: 30.04 inHg , 1017.3 hPa
Clouds: Clear
Visibility: 10 miles , 16 km
2019/08/19 04:53 KJKL 190453Z AUTO 00000KT 10SM CLR 26/19 A3004 RMK AO2 SLP153 T02560189 403440200
 
KIMS - Madison, Indiana, USA
Distance from station: NW 72mi, 116km
Updated: Mon, 19-Aug-2019 1:15am EDT
Clear
Clear
 Wind from calm
Wind: Calm
Temperature: 70°F , 21°C
Dew Point: 66°F , 19°C
Humidity: 88%
Barometer: 30.02 inHg , 1016.6 hPa
Clouds: Clear
Visibility: 10 miles , 16 km
2019/08/19 05:15 KIMS 190515Z AUTO 00000KT 10SM CLR 21/19 A3002 RMK AO1
KLUK - Cincinnat/Lunken, Ohio, USA
Distance from station: N 73mi, 118km
Updated: Mon, 19-Aug-2019 12:53am EDT
Clear
Clear
 Wind from NNW
Wind: NNW 9 mph , 15 km/h
Temperature: 77°F , 25°C
Dew Point: 64°F , 18°C
Humidity: 65%
Barometer: 30.01 inHg , 1016.3 hPa
Clouds: Clear
Visibility: 10 miles , 16 km
2019/08/19 04:53 KLUK 190453Z AUTO 34008KT 10SM CLR 25/18 A3001 RMK AO2 SLP157 T02500178 403330200
 
KI69 - Batavia, Ohio, USA
Distance from station: NNE 74mi, 119km
Updated: Mon, 19-Aug-2019 1:17am EDT
Partly cloudy
Partly cloudy
 Wind from NNE
Wind: NNE 5 mph , 7 km/h
Temperature: 75°F , 24°C
Dew Point: 66°F , 19°C
Humidity: 74%
Barometer: 30.03 inHg , 1016.9 hPa
Clouds: Partly cloudy
Visibility: 10 miles , 16 km
Cloud details: Partly cloudy 7500 ft
Partly cloudy 9000 ft
Partly cloudy 11000 ft
2019/08/19 05:17 KI69 190517Z AUTO 02004KT 10SM SCT075 SCT090 SCT110 24/19 A3003 RMK AO2 T02410186